createdAt,value
2019-05-14T00:04:31.570Z,101558.23
2019-05-14T00:09:36.325Z,101539.07
2019-05-14T00:14:43.647Z,101544.44
2019-05-14T00:19:46.278Z,101544.55
2019-05-14T00:24:51.999Z,101542.83
2019-05-14T00:29:56.267Z,101528.28
2019-05-14T00:35:02.007Z,101522.89
2019-05-14T00:40:06.187Z,101522.93
2019-05-14T00:45:11.575Z,101512.77
2019-05-14T00:50:15.990Z,101511.17
2019-05-14T00:55:22.120Z,101501.77
2019-05-14T01:00:25.933Z,101489.98
2019-05-14T01:05:32.116Z,101470.05
2019-05-14T01:10:36.650Z,101471.84
2019-05-14T01:15:41.472Z,101458.05
2019-05-14T01:20:45.641Z,101453.29
2019-05-14T01:25:51.644Z,101438.37
2019-05-14T01:30:55.419Z,101432.58
2019-05-14T01:36:01.792Z,101439.73
2019-05-14T01:41:05.379Z,101430.54
2019-05-14T01:46:11.997Z,101433.97
2019-05-14T01:51:15.305Z,101440.69
2019-05-14T01:56:21.324Z,101431.36
2019-05-14T02:01:25.607Z,101434.77
2019-05-14T02:06:33.059Z,101422.00
2019-05-14T02:11:37.305Z,101404.05
2019-05-14T02:16:42.374Z,101387.83
2019-05-14T02:21:46.718Z,101404.05
2019-05-14T02:26:51.434Z,101397.37
2019-05-14T02:31:58.830Z,101378.50
2019-05-14T02:37:01.642Z,101383.35
2019-05-14T02:42:09.027Z,101376.52
2019-05-14T02:47:11.547Z,101381.07
2019-05-14T02:52:15.603Z,101382.80
2019-05-14T02:57:20.339Z,101391.42
2019-05-14T03:02:24.539Z,101390.05
2019-05-14T03:07:29.782Z,101385.33
2019-05-14T03:12:35.097Z,101377.88
2019-05-14T03:17:40.327Z,101380.58
2019-05-14T03:22:58.697Z,101391.49
2019-05-14T03:27:50.751Z,101378.68
2019-05-14T03:32:54.931Z,101371.08
2019-05-14T03:38:00.439Z,101376.22
2019-05-14T03:43:04.891Z,101373.19
2019-05-14T03:48:10.400Z,101376.14
2019-05-14T03:53:14.988Z,101378.47
2019-05-14T03:58:21.050Z,101381.42
2019-05-14T04:03:25.114Z,101387.52
2019-05-14T04:08:30.412Z,101400.60
2019-05-14T04:13:35.969Z,101399.48
2019-05-14T04:18:40.945Z,101406.05
2019-05-14T04:23:50.796Z,101410.28
2019-05-14T04:28:55.439Z,101411.41
2019-05-14T04:34:01.617Z,101405.70
2019-05-14T04:39:09.454Z,101410.22
2019-05-14T04:44:15.101Z,101411.95
2019-05-14T04:49:20.032Z,101412.80
2019-05-14T04:54:24.290Z,101417.73
2019-05-14T04:59:29.957Z,101420.55
2019-05-14T05:04:34.737Z,101424.91
2019-05-14T05:09:39.750Z,101417.92
2019-05-14T05:14:45.332Z,101414.10
2019-05-14T05:19:51.595Z,101412.48
2019-05-14T05:24:55.174Z,101404.72
2019-05-14T05:29:59.367Z,101404.27
2019-05-14T05:35:03.538Z,101399.55
2019-05-14T05:40:09.128Z,101399.27
2019-05-14T05:45:13.867Z,101402.43
2019-05-14T05:50:19.335Z,101390.30
2019-05-14T05:55:23.614Z,101395.72
2019-05-14T06:00:33.954Z,101391.59
2019-05-14T06:05:39.052Z,101396.88
2019-05-14T06:10:44.251Z,101403.64
2019-05-14T06:15:51.458Z,101389.06
2019-05-14T06:20:54.191Z,101388.45
2019-05-14T06:25:59.741Z,101386.64
2019-05-14T06:31:04.602Z,101373.58
2019-05-14T06:36:08.967Z,101379.77
2019-05-14T06:41:13.228Z,101379.28
2019-05-14T06:46:19.350Z,101375.97
2019-05-14T06:51:23.183Z,101387.05
2019-05-14T06:56:28.238Z,101387.05
2019-05-14T07:01:32.539Z,101381.52
2019-05-14T07:06:38.933Z,101378.39
2019-05-14T07:11:42.583Z,101373.27
2019-05-14T07:16:48.500Z,101372.02
2019-05-14T07:21:52.561Z,101369.16
2019-05-14T07:26:58.719Z,101368.10
2019-05-14T07:32:02.533Z,101368.56
2019-05-14T07:37:09.051Z,101369.56
2019-05-14T07:42:12.309Z,101368.98
2019-05-14T07:47:18.549Z,101359.75
2019-05-14T07:52:22.100Z,101359.75
2019-05-14T07:57:28.320Z,101348.19
2019-05-14T08:02:32.197Z,101356.68
2019-05-14T08:07:38.625Z,101354.61
2019-05-14T08:12:42.018Z,101334.55
2019-05-14T08:17:48.294Z,101339.89
2019-05-14T08:22:51.893Z,101341.91
2019-05-14T08:27:55.975Z,101334.71
2019-05-14T08:33:00.107Z,101335.84
2019-05-14T08:38:08.364Z,101334.53
2019-05-14T08:43:10.057Z,101344.20
2019-05-14T08:48:14.177Z,101339.48
2019-05-14T08:53:18.706Z,101338.95
2019-05-14T08:58:22.998Z,101331.99
2019-05-14T09:03:28.758Z,101320.25
2019-05-14T09:08:33.252Z,101334.28
2019-05-14T09:13:38.301Z,101321.14
2019-05-14T09:18:42.851Z,101308.11
2019-05-14T09:23:48.162Z,101313.08
2019-05-14T09:28:52.495Z,101302.88
2019-05-14T09:33:58.459Z,101298.20
2019-05-14T09:39:02.981Z,101303.01
2019-05-14T09:44:09.170Z,101315.35
2019-05-14T09:49:13.017Z,101301.59
2019-05-14T09:54:19.275Z,101303.56
2019-05-14T09:59:23.099Z,101304.95
2019-05-14T10:04:27.184Z,101295.21
2019-05-14T10:09:31.337Z,101285.02
2019-05-14T10:14:35.429Z,101280.04
2019-05-14T10:19:39.704Z,101290.54
2019-05-14T10:24:43.987Z,101282.45
2019-05-14T10:29:48.302Z,101278.09
2019-05-14T10:34:52.499Z,101269.78
2019-05-14T10:39:58.652Z,101276.91
2019-05-14T10:45:02.294Z,101270.80
2019-05-14T10:50:13.371Z,101265.36
2019-05-14T10:55:13.348Z,101272.27
2019-05-14T11:00:18.608Z,101279.69
2019-05-14T11:05:23.036Z,101274.49
2019-05-14T11:10:29.659Z,101274.17
2019-05-14T11:15:32.959Z,101268.34
2019-05-14T11:20:41.727Z,101271.11
2019-05-14T11:25:42.999Z,101275.88
2019-05-14T11:30:49.378Z,101267.53
2019-05-14T11:35:52.948Z,101274.20
2019-05-14T11:40:58.762Z,101265.09
2019-05-14T11:46:02.785Z,101264.51
2019-05-14T11:51:09.074Z,101259.55
2019-05-14T11:56:12.653Z,101250.69
2019-05-14T12:01:18.821Z,101255.88
2019-05-14T12:06:34.163Z,101259.72
2019-05-14T12:11:38.615Z,101248.77
2019-05-14T12:16:42.917Z,101241.96
2019-05-14T12:22:02.301Z,101244.60
2019-05-14T12:26:53.951Z,101251.55
2019-05-14T12:31:58.641Z,101234.11
2019-05-14T12:37:02.974Z,101231.36
2019-05-14T12:42:10.543Z,101224.45
2019-05-14T12:47:12.814Z,101223.08
2019-05-14T12:52:24.785Z,101222.78
2019-05-14T12:57:22.819Z,101213.38
2019-05-14T13:02:29.448Z,101210.11
2019-05-14T13:07:32.751Z,101201.36
2019-05-14T13:12:39.090Z,101206.58
2019-05-14T13:17:43.585Z,101192.42
2019-05-14T13:22:50.321Z,101185.17
2019-05-14T13:27:54.709Z,101188.52
2019-05-14T13:32:59.290Z,101186.03
2019-05-14T13:38:03.643Z,101188.66
2019-05-14T13:43:09.819Z,101184.33
2019-05-14T13:48:13.614Z,101187.22
2019-05-14T13:53:18.895Z,101176.80
2019-05-14T13:58:23.241Z,101154.88
2019-05-14T14:03:29.188Z,101155.41
2019-05-14T14:08:33.108Z,101139.82
2019-05-14T14:13:39.201Z,101140.34
2019-05-14T14:18:42.939Z,101131.13
2019-05-14T14:23:49.446Z,101135.37
2019-05-14T14:28:54.052Z,101123.86
2019-05-14T14:33:58.161Z,101104.36
2019-05-14T14:39:02.319Z,101110.88
2019-05-14T14:44:08.761Z,101093.73
2019-05-14T14:49:12.314Z,101086.84
2019-05-14T14:54:16.602Z,101070.86
2019-05-14T14:59:20.841Z,101080.72
2019-05-14T15:04:24.885Z,101078.86
2019-05-14T15:09:29.037Z,101061.11
2019-05-14T15:14:33.185Z,101057.75
2019-05-14T15:19:39.490Z,101050.50
2019-05-14T15:24:43.388Z,101052.58
2019-05-14T15:29:48.826Z,101054.22
2019-05-14T15:34:53.354Z,101051.48
2019-05-14T15:39:57.493Z,101031.33
2019-05-14T15:45:01.622Z,101035.17
2019-05-14T15:50:08.924Z,101018.33
2019-05-14T15:55:12.685Z,101009.66
2019-05-14T16:00:19.565Z,100990.77
2019-05-14T16:05:22.993Z,100981.02
2019-05-14T16:10:30.928Z,100975.53
2019-05-14T16:15:33.159Z,100970.84
2019-05-14T16:20:39.253Z,100975.01
2019-05-14T16:25:43.208Z,100969.22
2019-05-14T16:30:49.679Z,100953.22
2019-05-14T16:35:53.132Z,100947.14
2019-05-14T16:40:59.633Z,100948.55
2019-05-14T16:46:03.005Z,100952.11
2019-05-14T16:51:08.903Z,100943.27
2019-05-14T16:56:13.292Z,100941.63
2019-05-14T17:01:19.310Z,100943.13
2019-05-14T17:06:23.268Z,100931.76
2019-05-14T17:11:28.377Z,100909.67
2019-05-14T17:16:38.158Z,100923.53
2019-05-14T17:21:42.322Z,100920.75
2019-05-14T17:26:48.746Z,100905.31
2019-05-14T17:31:52.369Z,100899.54
2019-05-14T17:36:59.198Z,100896.20
2019-05-14T17:42:03.251Z,100901.19
2019-05-14T17:47:07.589Z,100898.19
2019-05-14T17:52:11.913Z,100904.26
2019-05-14T17:57:16.090Z,100908.40
2019-05-14T18:02:20.383Z,100889.91
2019-05-14T18:07:24.485Z,100890.19
2019-05-14T18:12:30.514Z,100883.29
2019-05-14T18:17:34.466Z,100882.18
2019-05-14T18:22:42.225Z,100881.07
2019-05-14T18:27:44.380Z,100877.51
2019-05-14T18:32:48.807Z,100871.70
2019-05-14T18:37:52.945Z,100864.53
2019-05-14T18:42:59.108Z,100864.83
2019-05-14T18:48:02.782Z,100879.67
2019-05-14T18:53:09.024Z,100868.34
2019-05-14T18:58:12.967Z,100868.34
2019-05-14T19:03:19.680Z,100868.32
2019-05-14T19:08:22.985Z,100872.44
2019-05-14T19:13:28.183Z,100866.34
2019-05-14T19:18:33.100Z,100864.37
2019-05-14T19:23:38.438Z,100869.05
2019-05-14T19:28:43.020Z,100857.46
2019-05-14T19:33:48.766Z,100868.97
2019-05-14T19:38:52.977Z,100860.11
2019-05-14T19:43:59.457Z,100860.11
2019-05-14T19:49:03.196Z,100861.42
2019-05-14T19:54:08.175Z,100861.42
2019-05-14T19:59:12.484Z,100865.61
2019-05-14T20:04:18.346Z,100875.99
2019-05-14T20:09:22.616Z,100860.09
2019-05-14T20:14:28.711Z,100861.71
2019-05-14T20:19:32.510Z,100863.63
2019-05-14T20:24:41.165Z,100855.08
2019-05-14T20:29:43.442Z,100853.91
2019-05-14T20:34:48.706Z,100848.80
2019-05-14T20:39:52.872Z,100845.75
2019-05-14T20:44:57.033Z,100849.05
2019-05-14T20:50:01.259Z,100840.96
2019-05-14T20:55:05.914Z,100836.27
2019-05-14T21:00:11.850Z,100850.30
2019-05-14T21:05:16.183Z,100853.56
2019-05-14T21:10:20.485Z,100854.67
2019-05-14T21:15:24.591Z,100846.73
2019-05-14T21:20:28.731Z,100844.53
2019-05-14T21:25:33.305Z,100844.20
2019-05-14T21:30:38.866Z,100840.97
2019-05-14T21:35:43.229Z,100829.39
2019-05-14T21:40:49.762Z,100831.89
2019-05-14T21:45:53.134Z,100833.33
2019-05-14T21:51:00.548Z,100830.80
2019-05-14T21:56:03.037Z,100827.50
2019-05-14T22:01:07.961Z,100824.16
2019-05-14T22:06:12.259Z,100835.44
2019-05-14T22:11:18.659Z,100825.20
2019-05-14T22:16:22.211Z,100820.03
2019-05-14T22:21:26.341Z,100819.46
2019-05-14T22:26:30.477Z,100821.42
2019-05-14T22:31:34.754Z,100821.67
2019-05-14T22:36:38.988Z,100825.29
2019-05-14T22:41:43.021Z,100819.41
2019-05-14T22:46:49.009Z,100812.30
2019-05-14T22:51:52.844Z,100812.59
2019-05-14T22:56:58.915Z,100819.68
2019-05-14T23:02:02.722Z,100802.09
2019-05-14T23:07:08.222Z,100798.23
2019-05-14T23:12:12.523Z,100788.33
2019-05-14T23:17:16.529Z,100788.82
2019-05-14T23:22:20.559Z,100777.00
2019-05-14T23:27:24.762Z,100776.20
2019-05-14T23:32:28.922Z,100767.08
2019-05-14T23:37:32.906Z,100771.48
2019-05-14T23:42:39.194Z,100762.66
2019-05-14T23:47:42.717Z,100762.37
2019-05-14T23:52:49.221Z,100756.84
2019-05-14T23:57:52.447Z,100751.94
